Iwamizawa, Japan

8:17 AM JST on September 23, 2014 (GMT +0900)
New Chitose | Change Station
CLOSE
Current Station
Airport
Location: Chitose AB,
Elevation: 98 ft
Nearby Weather Stations

Elev 98 ft 42.77 °N, 141.69 °E | Updated 47 minutes ago

Partly Cloudy
Partly Cloudy
54 °F
Feels Like 54 °F
N
5
Wind Variable Wind from SSE

Today
High -- | Low -- °F
--% Chance of Precip.
Yesterday
High -- | Low -- °F
Precip. -- in
5:20 AM 5:29 PM
Waning Crescent, 2% visible
Pressure 30.09 in
Visibility 6.2 miles
Clouds Few 3000 ft
Dew Point 50 °F
Humidity 88%
Rainfall 0.00 in
Snow Depth Not available.
UV 1 out of 12
Pollen Not available.
Air Quality Not available.
Flu Activity Not available.
METAR RJCC 222230Z 16004KT 9999 FEW030 SCT/// 12/10 Q1019 RMK 1CU030 A3009

More Conditions Fewer Conditions

Pressure 30.09 in
Visibility 6.2 miles
Clouds Few 3000 ft
Dew Point 50 °F
Humidity 88%
Rainfall 0.00 in
Snow Depth Not available.
UV 1 out of 12
Pollen Not available.
Air Quality Not available.
Flu Activity Not available.
METAR RJCC 222230Z 16004KT 9999 FEW030 SCT/// 12/10 Q1019 RMK 1CU030 A3009

More Conditions Fewer Conditions

10-Day Weather Forecast

Almanac

Astronomy

Sep. 23, 2014 Rise Set
Actual Time 5:20 AM JST 5:29 PM JST
Civil Twilight 4:52 AM JST 5:57 PM JST
Nautical Twilight 4:18 AM JST 6:31 PM JST
Astronomical Twilight 3:44 AM JST 7:05 PM JST
Moon 4:07 AM JST (9/23) 4:48 PM JST (9/23)
Length of Visible Light 13h 05m
Length of Day
12h 08m
Tomorrow will be 2m 56s shorter.
Waning Crescent, 2% of the Moon is Illuminated
Sep 22
Waning Crescent
Sep 24
New
Oct 1
First Quarter
Oct 8
Full
Oct 15
Last Quarter

Yesterday's Extremes

Country Highs Country Lows

Community

WunderPhotos

Upload Photos

1,755,548 photos uploaded!

Nearby

Snow Depth

Not available.

Earthquake Activity

City Distance Mag. Time & Date
No recent earthquake activity has been reported nearby.
Minimum magnitude displayed is 2.5.

Coastal Water Temperatures

Place Temperature
No Stations Reporting

Nearby Weather Stations